createdAt,value
2023-02-28T00:03:04.435Z,8.06
2023-02-28T00:18:06.287Z,6.84
2023-02-28T00:33:07.976Z,7.27
2023-02-28T00:48:09.600Z,8.17
2023-02-28T01:03:11.321Z,6.69
2023-02-28T01:18:13.061Z,6.55
2023-02-28T01:33:14.731Z,6.77
2023-02-28T01:48:16.807Z,7.39
2023-02-28T02:03:21.388Z,7.53
2023-02-28T02:18:47.617Z,7.55
2023-02-28T02:34:04.480Z,7.54
2023-02-28T02:49:12.251Z,6.28
2023-02-28T03:04:19.266Z,6.29
2023-02-28T03:19:41.084Z,6.66
2023-02-28T03:34:54.916Z,6.94
2023-02-28T03:50:04.029Z,5.83
2023-02-28T04:05:06.536Z,6.19
2023-02-28T04:20:10.708Z,5.91
2023-02-28T04:35:12.565Z,5.87
2023-02-28T04:50:14.310Z,5.52
2023-02-28T05:05:19.203Z,5.88
2023-02-28T05:20:21.952Z,6.90
2023-02-28T05:35:23.972Z,5.33
2023-02-28T05:50:25.626Z,4.66
2023-02-28T06:05:27.413Z,7.23
2023-02-28T06:20:31.863Z,7.31
2023-02-28T06:35:33.554Z,6.27
2023-02-28T06:50:35.241Z,6.02
2023-02-28T07:05:39.140Z,6.51
2023-02-28T07:20:40.771Z,7.89
2023-02-28T07:35:42.742Z,7.39
2023-02-28T07:50:44.524Z,7.25
2023-02-28T08:05:46.253Z,7.31
2023-02-28T08:20:47.893Z,6.02
2023-02-28T08:35:49.689Z,7.38
2023-02-28T08:51:08.297Z,7.47
2023-02-28T09:06:11.370Z,8.11
2023-02-28T09:21:16.233Z,7.84
2023-02-28T09:36:18.716Z,9.07
2023-02-28T09:51:51.876Z,9.36
2023-02-28T10:06:54.370Z,9.38
2023-02-28T10:22:02.794Z,8.98
2023-02-28T10:37:08.347Z,9.99
2023-02-28T10:52:10.791Z,7.45
2023-02-28T11:07:24.385Z,10.11
2023-02-28T11:22:30.770Z,10.14
2023-02-28T11:37:34.067Z,9.90
2023-02-28T11:52:55.190Z,11.14
2023-02-28T12:08:03.729Z,10.46
2023-02-28T12:23:23.802Z,11.14
2023-02-28T12:38:46.400Z,10.62
2023-02-28T12:54:04.661Z,11.36
2023-02-28T13:09:15.708Z,11.40
2023-02-28T13:24:52.849Z,11.23
2023-02-28T13:40:04.119Z,10.88
2023-02-28T13:55:24.819Z,11.39
2023-02-28T14:10:38.293Z,11.22
2023-02-28T14:26:15.461Z,11.27
2023-02-28T14:41:25.090Z,8.38
2023-02-28T14:56:38.566Z,11.18
2023-02-28T15:11:41.135Z,10.99
2023-02-28T15:26:56.181Z,9.35
2023-02-28T15:42:22.360Z,10.12
2023-02-28T15:57:27.525Z,9.26
2023-02-28T16:12:32.310Z,9.18
2023-02-28T16:27:38.352Z,9.12
2023-02-28T16:42:40.307Z,9.73
2023-02-28T16:57:42.277Z,7.61
2023-02-28T17:12:44.492Z,7.86
2023-02-28T17:27:46.860Z,8.07
2023-02-28T17:42:48.670Z,8.61
2023-02-28T17:57:50.380Z,7.62
2023-02-28T18:12:53.112Z,8.08
2023-02-28T18:27:58.228Z,5.71
2023-02-28T18:43:00.434Z,6.94
2023-02-28T18:58:02.206Z,7.08
2023-02-28T19:13:04.732Z,6.95
2023-02-28T19:28:06.442Z,7.73
2023-02-28T19:43:08.829Z,7.57
2023-02-28T19:58:10.980Z,6.86
2023-02-28T20:13:12.607Z,6.01
2023-02-28T20:28:14.361Z,7.56
2023-02-28T20:43:16.092Z,5.94
2023-02-28T20:58:17.774Z,5.64
2023-02-28T21:13:19.485Z,6.03
2023-02-28T21:28:21.210Z,6.33
2023-02-28T21:43:23.051Z,6.28
2023-02-28T21:58:24.787Z,7.49
2023-02-28T22:13:26.510Z,7.56
2023-02-28T22:28:30.221Z,7.88
2023-02-28T22:43:32.917Z,8.17
2023-02-28T22:58:35.316Z,7.34
2023-02-28T23:13:37.178Z,6.84
2023-02-28T23:28:38.907Z,6.75
2023-02-28T23:43:41.010Z,6.42
2023-02-28T23:58:43.958Z,5.76
